Terminal Aerodrome Forecast
Issued by NWS Twin Cities, MN

Home | Current Version | Previous Version | Graphics & Text | Print | Product List | Glossary On
Versions: 1 2 3 4 5 6 7 8 9 10 11 12 13 14 15
000
FTUS43 KMPX 180535
TAFEAU
TAF
KEAU 180535Z 1806/1906 36011KT P6SM VCSH BKN035
     FM180900 16007KT P6SM SCT060
     FM181200 18007KT 6SM BR BKN030 BKN050
     FM181600 24007KT P6SM SCT035 BKN050
     FM182000 32006KT 6SM -SHRA VCTS SCT035 BKN050CB
      TEMPO 1822/1902 3SM +TSRA BR SCT015 OVC025CB
     FM190400 04003KT P6SM OVC035=

USA.gov is the U.S. government's official web portal to all federal, state and local government web resources and services.